In Rescue
 
Open Full Screen Window  High Contrast Mode
Wind Gusting 00 knots
09
April 19, 2021 8:19 PM CDT
Weather Information
Wind Direction
  320 °
Wind Speed
  09 kt (10 mph)
Wind Gust
  00 kt (0 mph)
Altimeter
30.07 in
Visibility
10 SM
Temperature
01° C
34° F
Dewpoint
-09° C
16° F
Humidity
48%
1hr Rain Fall
00.00 in.
24hr Rain Fall
00.00 in.
Sky Condition
Broken @ 7,000 ft
VFR

METAR KPEX 200119Z AUTO 32009KT 10SM BKN070 01/M09 A3007 RMK AO2

FAA Disclaimer: The data displayed is for advisory purposes only and is not to be used for flight planning or operations.